Sealyon — 2CGJ2 — position and weather

sailwx.info

Track history (hours):
 
Tides and Currents Weather Stations Pressure Air Temp Water Temp Dewpoint Dewpoint Depression Visibility Wind Speed Wind Dir Waves Ship Positions

Sealyon

Last reported at 2014-Sep-01 23:32 UTC. Time now 2014-Sep-01 23:47 UTC.
Position N 44°24' E 008°56'.

Length 62 m; draft 3.6 m.

Type: Pleasure craft. MMSI: 235072538.

Date/timePositionNaut miles runAvg speedWind from/ knotsBaromVisibWave heightAir tempDewpointWater temp
2014-Sep-01 23:32N 44°24' E 008°56'0 0.0
2014-Sep-01 22:30N 44°24' E 008°56'0 0.0
2014-Sep-01 21:28N 44°24' E 008°56'0 0.0
2014-Sep-01 20:29N 44°24' E 008°56'0 0.0
2014-Sep-01 19:29N 44°24' E 008°56'0 0.0
2014-Sep-01 18:30N 44°24' E 008°56'0 0.0
2014-Sep-01 17:31N 44°24' E 008°56'0 0.0
2014-Sep-01 16:31N 44°24' E 008°56'0 0.0
2014-Sep-01 15:32N 44°24' E 008°56'0 0.0
2014-Sep-01 14:32N 44°24' E 008°56'0 0.0
2014-Sep-01 13:30N 44°24' E 008°56'0 0.0
2014-Sep-01 12:28N 44°24' E 008°56'0 0.0
2014-Sep-01 11:29N 44°24' E 008°56'0 0.0
2014-Sep-01 10:29N 44°24' E 008°56'0 0.0
2014-Sep-01 09:24N 44°24' E 008°56'0 0.0
2014-Sep-01 08:31N 44°24' E 008°56'0 0.0
2014-Sep-01 07:31N 44°24' E 008°56'0 0.0
2014-Sep-01 06:26N 44°24' E 008°56'0 0.0
2014-Sep-01 05:33N 44°24' E 008°56'0 0.0
2014-Sep-01 04:33N 44°24' E 008°56'0 0.0
2014-Sep-01 03:28N 44°24' E 008°56'0 0.0
2014-Sep-01 02:32N 44°24' E 008°56'0 0.0
2014-Sep-01 01:29N 44°24' E 008°56'0 0.0
2014-Sep-01 00:30N 44°24' E 008°56'0 0.0
2014-Aug-31 23:34N 44°24' E 008°56'0 0.0
2014-Aug-31 22:31N 44°24' E 008°56'0 0.0
2014-Aug-31 21:32N 44°24' E 008°56'0 0.0
2014-Aug-31 20:33N 44°24' E 008°56'0 0.0
2014-Aug-31 19:33N 44°24' E 008°56'0 0.0
2014-Aug-31 18:31N 44°24' E 008°56'0 0.0
2014-Aug-31 17:29N 44°24' E 008°56'0 0.0
2014-Aug-31 16:29N 44°24' E 008°56'0 0.0
2014-Aug-31 15:30N 44°24' E 008°56'0 0.0
2014-Aug-31 14:25N 44°24' E 008°56'0 0.0
2014-Aug-31 13:25N 44°24' E 008°56'0 0.0
2014-Aug-31 12:32N 44°24' E 008°56'0 0.0
2014-Aug-31 11:33N 44°24' E 008°56'0 0.0
2014-Aug-31 10:33N 44°24' E 008°56'0 0.0
2014-Aug-31 09:28N 44°24' E 008°56'0 0.0
2014-Aug-31 08:29N 44°24' E 008°56'0 0.0
2014-Aug-31 07:26N 44°24' E 008°56'0 0.0
2014-Aug-31 06:30N 44°24' E 008°56'0 0.0
2014-Aug-31 05:31N 44°24' E 008°56'0 0.0
2014-Aug-31 04:31N 44°24' E 008°56'0 0.0
2014-Aug-31 03:32N 44°24' E 008°56'0 0.0
2014-Aug-31 02:33N 44°24' E 008°56'0 0.0
2014-Aug-31 01:30N 44°24' E 008°56'0 0.0
2014-Aug-31 00:31N 44°24' E 008°56'0 0.0
2014-Aug-30 23:32N 44°24' E 008°56'0 0.0
2014-Aug-30 22:29N 44°24' E 008°56'0 0.0
2014-Aug-30 21:33N 44°24' E 008°56'0 0.0
2014-Aug-30 20:31N 44°24' E 008°56'0 0.0
2014-Aug-30 19:31N 44°24' E 008°56'0 0.0
2014-Aug-30 18:32N 44°24' E 008°56'0 0.0
2014-Aug-30 17:33N 44°24' E 008°56'0 0.0
2014-Aug-30 16:33N 44°24' E 008°56'0 0.0
2014-Aug-30 15:28N 44°24' E 008°56'0 0.1
2014-Aug-30 14:34N 44°24' E 008°56'10 9.6
2014-Aug-30 13:33N 44°15' E 008°50'1514.5
2014-Aug-30 12:33N 44°06' E 008°33'1514.6
2014-Aug-30 11:30N 43°58' E 008°16'1414.3
2014-Aug-30 10:33N 43°50' E 007°60'1413.4
2014-Aug-30 09:29N 43°46' E 007°41'1111.7
2014-Aug-30 08:33N 43°44' E 007°26'  
2014-Aug-26 10:32N 43°44' E 007°26'5 3.2
2014-Aug-26 09:04N 43°42' E 007°20'0 0.0
2014-Aug-26 06:30N 43°42' E 007°20'0 0.0
2014-Aug-26 05:24N 43°42' E 007°20'0 0.0
2014-Aug-26 04:25N 43°42' E 007°20'0 0.0
2014-Aug-26 03:14N 43°42' E 007°20'0 0.0
2014-Aug-26 02:21N 43°42' E 007°20'0 0.0
2014-Aug-26 01:33N 43°42' E 007°20'0 0.0
2014-Aug-26 00:25N 43°42' E 007°20'6 6.5
2014-Aug-25 23:32N 43°44' E 007°28'4615.4
2014-Aug-25 20:31N 44°01' E 008°28'1415.0
2014-Aug-25 19:33N 44°07' E 008°45'1514.9
2014-Aug-25 18:33N 44°14' E 009°04'8 7.7
2014-Aug-25 17:29N 44°19' E 009°13'0 0.0
2014-Aug-25 16:33N 44°19' E 009°13'0 0.0
2014-Aug-25 15:30N 44°19' E 009°13'0 0.0
2014-Aug-25 14:30N 44°19' E 009°13'0 0.0
2014-Aug-25 13:33N 44°19' E 009°13'0 0.0
2014-Aug-25 12:28N 44°19' E 009°13'0 0.0
2014-Aug-25 11:32N 44°19' E 009°13'0 0.0
2014-Aug-25 10:33N 44°19' E 009°13'0 0.0
2014-Aug-25 09:33N 44°19' E 009°13'0 0.0
2014-Aug-25 08:31N 44°19' E 009°13'0 0.0
2014-Aug-25 07:32N 44°19' E 009°13'4 4.2
2014-Aug-25 06:33N 44°15' E 009°16'1413.5
2014-Aug-25 05:33N 44°05' E 009°27'1413.6
2014-Aug-25 04:33N 43°54' E 009°39'1313.2
2014-Aug-25 03:33N 43°44' E 009°50'1212.4
2014-Aug-25 02:33N 43°33' E 009°59'1212.2
2014-Aug-25 01:33N 43°22' E 010°06'1211.8
2014-Aug-25 00:33N 43°11' E 010°14'  
Track history (hours):
 
Tides and Currents Weather Stations Pressure Air Temp Water Temp Dewpoint Dewpoint Depression Visibility Wind Speed Wind Dir Waves Ship Positions

Sealyon

Last reported at 2014-Sep-01 23:32 UTC. Time now 2014-Sep-01 23:47 UTC.
Position N 44°24' E 008°56'.

Length 62 m; draft 3.6 m.

Type: Pleasure craft. MMSI: 235072538.

Date/timePositionNaut miles runAvg speedWind from/ knotsBaromVisibWave heightAir tempDewpointWater temp
2014-Sep-01 23:32N 44°24' E 008°56'0 0.0
2014-Sep-01 22:30N 44°24' E 008°56'0 0.0
2014-Sep-01 21:28N 44°24' E 008°56'0 0.0
2014-Sep-01 20:29N 44°24' E 008°56'0 0.0
2014-Sep-01 19:29N 44°24' E 008°56'0 0.0
2014-Sep-01 18:30N 44°24' E 008°56'0 0.0
2014-Sep-01 17:31N 44°24' E 008°56'0 0.0
2014-Sep-01 16:31N 44°24' E 008°56'0 0.0
2014-Sep-01 15:32N 44°24' E 008°56'0 0.0
2014-Sep-01 14:32N 44°24' E 008°56'0 0.0
2014-Sep-01 13:30N 44°24' E 008°56'0 0.0
2014-Sep-01 12:28N 44°24' E 008°56'0 0.0
2014-Sep-01 11:29N 44°24' E 008°56'0 0.0
2014-Sep-01 10:29N 44°24' E 008°56'0 0.0
2014-Sep-01 09:24N 44°24' E 008°56'0 0.0
2014-Sep-01 08:31N 44°24' E 008°56'0 0.0
2014-Sep-01 07:31N 44°24' E 008°56'0 0.0
2014-Sep-01 06:26N 44°24' E 008°56'0 0.0
2014-Sep-01 05:33N 44°24' E 008°56'0 0.0
2014-Sep-01 04:33N 44°24' E 008°56'0 0.0
2014-Sep-01 03:28N 44°24' E 008°56'0 0.0
2014-Sep-01 02:32N 44°24' E 008°56'0 0.0
2014-Sep-01 01:29N 44°24' E 008°56'0 0.0
2014-Sep-01 00:30N 44°24' E 008°56'0 0.0
2014-Aug-31 23:34N 44°24' E 008°56'0 0.0
2014-Aug-31 22:31N 44°24' E 008°56'0 0.0
2014-Aug-31 21:32N 44°24' E 008°56'0 0.0
2014-Aug-31 20:33N 44°24' E 008°56'0 0.0
2014-Aug-31 19:33N 44°24' E 008°56'0 0.0
2014-Aug-31 18:31N 44°24' E 008°56'0 0.0
2014-Aug-31 17:29N 44°24' E 008°56'0 0.0
2014-Aug-31 16:29N 44°24' E 008°56'0 0.0
2014-Aug-31 15:30N 44°24' E 008°56'0 0.0
2014-Aug-31 14:25N 44°24' E 008°56'0 0.0
2014-Aug-31 13:25N 44°24' E 008°56'0 0.0
2014-Aug-31 12:32N 44°24' E 008°56'0 0.0
2014-Aug-31 11:33N 44°24' E 008°56'0 0.0
2014-Aug-31 10:33N 44°24' E 008°56'0 0.0
2014-Aug-31 09:28N 44°24' E 008°56'0 0.0
2014-Aug-31 08:29N 44°24' E 008°56'0 0.0
2014-Aug-31 07:26N 44°24' E 008°56'0 0.0
2014-Aug-31 06:30N 44°24' E 008°56'0 0.0
2014-Aug-31 05:31N 44°24' E 008°56'0 0.0
2014-Aug-31 04:31N 44°24' E 008°56'0 0.0
2014-Aug-31 03:32N 44°24' E 008°56'0 0.0
2014-Aug-31 02:33N 44°24' E 008°56'0 0.0
2014-Aug-31 01:30N 44°24' E 008°56'0 0.0
2014-Aug-31 00:31N 44°24' E 008°56'0 0.0
2014-Aug-30 23:32N 44°24' E 008°56'0 0.0
2014-Aug-30 22:29N 44°24' E 008°56'0 0.0
2014-Aug-30 21:33N 44°24' E 008°56'0 0.0
2014-Aug-30 20:31N 44°24' E 008°56'0 0.0
2014-Aug-30 19:31N 44°24' E 008°56'0 0.0
2014-Aug-30 18:32N 44°24' E 008°56'0 0.0
2014-Aug-30 17:33N 44°24' E 008°56'0 0.0
2014-Aug-30 16:33N 44°24' E 008°56'0 0.0
2014-Aug-30 15:28N 44°24' E 008°56'0 0.1
2014-Aug-30 14:34N 44°24' E 008°56'10 9.6
2014-Aug-30 13:33N 44°15' E 008°50'1514.5
2014-Aug-30 12:33N 44°06' E 008°33'1514.6
2014-Aug-30 11:30N 43°58' E 008°16'1414.3
2014-Aug-30 10:33N 43°50' E 007°60'1413.4
2014-Aug-30 09:29N 43°46' E 007°41'1111.7
2014-Aug-30 08:33N 43°44' E 007°26'  
2014-Aug-26 10:32N 43°44' E 007°26'5 3.2
2014-Aug-26 09:04N 43°42' E 007°20'0 0.0
2014-Aug-26 06:30N 43°42' E 007°20'0 0.0
2014-Aug-26 05:24N 43°42' E 007°20'0 0.0
2014-Aug-26 04:25N 43°42' E 007°20'0 0.0
2014-Aug-26 03:14N 43°42' E 007°20'0 0.0
2014-Aug-26 02:21N 43°42' E 007°20'0 0.0
2014-Aug-26 01:33N 43°42' E 007°20'0 0.0
2014-Aug-26 00:25N 43°42' E 007°20'6 6.5
2014-Aug-25 23:32N 43°44' E 007°28'4615.4
2014-Aug-25 20:31N 44°01' E 008°28'1415.0
2014-Aug-25 19:33N 44°07' E 008°45'1514.9
2014-Aug-25 18:33N 44°14' E 009°04'8 7.7
2014-Aug-25 17:29N 44°19' E 009°13'0 0.0
2014-Aug-25 16:33N 44°19' E 009°13'0 0.0
2014-Aug-25 15:30N 44°19' E 009°13'0 0.0
2014-Aug-25 14:30N 44°19' E 009°13'0 0.0
2014-Aug-25 13:33N 44°19' E 009°13'0 0.0
2014-Aug-25 12:28N 44°19' E 009°13'0 0.0
2014-Aug-25 11:32N 44°19' E 009°13'0 0.0
2014-Aug-25 10:33N 44°19' E 009°13'0 0.0
2014-Aug-25 09:33N 44°19' E 009°13'0 0.0
2014-Aug-25 08:31N 44°19' E 009°13'0 0.0
2014-Aug-25 07:32N 44°19' E 009°13'4 4.2
2014-Aug-25 06:33N 44°15' E 009°16'1413.5
2014-Aug-25 05:33N 44°05' E 009°27'1413.6
2014-Aug-25 04:33N 43°54' E 009°39'1313.2
2014-Aug-25 03:33N 43°44' E 009°50'1212.4
2014-Aug-25 02:33N 43°33' E 009°59'1212.2
2014-Aug-25 01:33N 43°22' E 010°06'1211.8
2014-Aug-25 00:33N 43°11' E 010°14'  

Dump ship's entire track history